Time;durP1;ratioP1;P1;durP2;ratioP2;P2;SDS_P1;SDS_P2;PMS_P1;PMS_P2;Temp;Humidity;BMP_temperature;BMP_pressure;BME280_temperature;BME280_humidity;BME280_pressure;Samples;Min_cycle;Max_cycle;Signal;HPM_P1;HPM_P2
2024/01/07 00:01:38;;;;;;;25.75;13.80;;;;;;;0.56;100.00;101637.72;4976281;28;20106;-83
2024/01/07 00:04:06;;;;;;;26.08;13.60;;;;;;;0.58;100.00;101642.09;4982440;22;20518;-84
2024/01/07 00:06:31;;;;;;;24.58;12.35;;;;;;;0.64;100.00;101635.44;4976352;28;20085;-84
2024/01/07 00:08:56;;;;;;;26.50;13.73;;;;;;;0.62;100.00;101640.50;4976868;28;20026;-84
2024/01/07 00:11:23;;;;;;;27.67;14.35;;;;;;;0.64;100.00;101641.44;4974868;28;20468;-84
2024/01/07 00:13:48;;;;;;;26.70;14.05;;;;;;;0.63;100.00;101647.38;4976024;28;20029;-84
2024/01/07 00:16:16;;;;;;;30.13;16.27;;;;;;;0.57;100.00;101649.66;4976056;28;20030;-83
2024/01/07 00:18:41;;;;;;;27.80;15.07;;;;;;;0.56;100.00;101642.84;4976080;28;20098;-83
2024/01/07 00:21:07;;;;;;;28.33;15.05;;;;;;;0.64;100.00;101661.00;4976258;28;20090;-84
2024/01/07 00:23:32;;;;;;;27.60;15.15;;;;;;;0.63;100.00;101649.91;4975741;28;20471;-83
2024/01/07 00:25:57;;;;;;;29.38;16.25;;;;;;;0.52;100.00;101652.03;4976492;28;20033;-83
2024/01/07 00:28:22;;;;;;;27.83;15.02;;;;;;;0.55;100.00;101652.16;4976332;28;20015;-83
2024/01/07 00:30:48;;;;;;;26.83;14.48;;;;;;;0.57;100.00;101659.88;4975231;28;20419;-84
2024/01/07 00:33:13;;;;;;;25.08;12.70;;;;;;;0.58;100.00;101651.41;4975511;28;20035;-83
2024/01/07 00:35:38;;;;;;;24.90;12.68;;;;;;;0.63;100.00;101659.25;4975468;28;20534;-83
2024/01/07 00:38:03;;;;;;;23.98;12.60;;;;;;;0.59;100.00;101656.59;4975262;28;20034;-83
2024/01/07 00:40:29;;;;;;;26.00;14.50;;;;;;;0.61;100.00;101667.75;4975895;28;20029;-84
2024/01/07 00:42:54;;;;;;;26.40;15.05;;;;;;;0.56;100.00;101664.13;4975974;28;20072;-83
2024/01/07 00:45:19;;;;;;;27.08;15.02;;;;;;;0.52;100.00;101669.91;4975489;28;20393;-84
2024/01/07 00:47:45;;;;;;;26.48;14.70;;;;;;;0.51;100.00;101680.09;4975638;28;20157;-84
2024/01/07 00:50:10;;;;;;;25.90;14.15;;;;;;;0.46;100.00;101673.09;4975481;28;20032;-83
2024/01/07 00:52:38;;;;;;;23.67;12.60;;;;;;;0.51;100.00;101677.53;4955702;28;20475;-83
2024/01/07 00:55:06;;;;;;;24.60;13.05;;;;;;;0.53;100.00;101678.47;4956703;28;20102;-83
2024/01/07 00:57:31;;;;;;;23.33;12.30;;;;;;;0.57;100.00;101680.31;4956577;28;20035;-84
2024/01/07 00:59:56;;;;;;;22.92;12.32;;;;;;;0.57;100.00;101682.88;4956122;28;20027;-83
2024/01/07 01:02:22;;;;;;;21.10;10.57;;;;;;;0.60;100.00;101690.66;4956508;28;20036;-84
2024/01/07 01:04:50;;;;;;;23.40;12.40;;;;;;;0.66;100.00;101683.25;4970474;28;20042;-83
2024/01/07 01:07:15;;;;;;;25.67;13.75;;;;;;;0.60;100.00;101693.22;4975190;28;20026;-84
2024/01/07 01:09:40;;;;;;;27.27;14.95;;;;;;;0.53;100.00;101693.81;4975590;28;20026;-84
2024/01/07 01:12:08;;;;;;;24.48;13.63;;;;;;;0.51;100.00;101691.16;4975421;28;20027;-83
2024/01/07 01:14:33;;;;;;;26.27;14.23;;;;;;;0.52;100.00;101703.13;4974202;28;20031;-84
2024/01/07 01:16:59;;;;;;;25.25;12.88;;;;;;;0.54;100.00;101700.66;5158233;23;20050;-84
2024/01/07 01:19:24;;;;;;;25.35;13.75;;;;;;;0.57;100.00;101700.75;4975643;28;20072;-84
2024/01/07 01:21:50;;;;;;;25.23;13.27;;;;;;;0.58;100.00;101705.94;4973912;28;20022;-84
2024/01/07 01:24:15;;;;;;;24.27;12.82;;;;;;;0.50;100.00;101697.13;4974129;28;20034;-84
2024/01/07 01:26:46;;;;;;;25.65;13.70;;;;;;;0.55;100.00;101708.38;4974819;28;20030;-83
2024/01/07 01:29:24;;;;;;;30.38;15.98;;;;;;;0.38;100.00;101697.47;4975140;28;20027;-84
2024/01/07 01:32:10;;;;;;;29.17;15.73;;;;;;;0.47;100.00;101709.75;4975369;28;20022;-84
2024/01/07 01:34:36;;;;;;;26.45;13.90;;;;;;;0.51;100.00;101706.50;4960684;28;20031;-83
2024/01/07 01:37:02;;;;;;;26.58;13.60;;;;;;;0.55;100.00;101717.72;4955801;28;20487;-84
2024/01/07 01:39:28;;;;;;;31.67;17.52;;;;;;;0.41;100.00;101715.47;4955682;28;20404;-84
2024/01/07 01:41:54;;;;;;;29.42;15.85;;;;;;;0.45;100.00;101716.47;4954151;28;20038;-83
2024/01/07 01:44:19;;;;;;;30.63;17.00;;;;;;;0.42;100.00;101724.00;4956008;28;20019;-84
2024/01/07 01:46:48;;;;;;;32.53;17.65;;;;;;;0.37;100.00;101723.81;4955588;28;20474;-83
2024/01/07 01:49:13;;;;;;;31.10;17.10;;;;;;;0.36;100.00;101723.78;4954946;28;20089;-83
2024/01/07 01:51:39;;;;;;;33.15;18.58;;;;;;;0.31;100.00;101731.25;4955479;28;20471;-84
2024/01/07 01:54:05;;;;;;;30.60;16.70;;;;;;;0.34;100.00;101727.94;4970756;28;20029;-84
2024/01/07 01:56:32;;;;;;;34.22;18.00;;;;;;;0.31;100.00;101726.13;4974236;28;20367;-84
2024/01/07 01:58:57;;;;;;;;;;;;;;;0.31;100.00;101738.91;4975047;28;20035;-84
2024/01/07 02:01:23;;;;;;;34.37;18.57;;;;;;;0.30;100.00;101742.25;4975193;28;20420;-84
2024/01/07 02:03:49;;;;;;;33.10;17.58;;;;;;;0.30;100.00;101737.16;4973044;28;20085;-84
2024/01/07 02:06:17;;;;;;;32.85;18.10;;;;;;;0.33;100.00;101733.84;4974577;28;20022;-84
2024/01/07 02:08:42;;;;;;;34.13;18.30;;;;;;;0.30;100.00;101747.38;4974114;28;20611;-84
2024/01/07 02:11:19;;;;;;;32.03;16.85;;;;;;;0.27;100.00;101735.38;4973779;28;20047;-84
2024/01/07 02:13:45;;;;;;;;;;;;;;;0.31;100.00;101746.56;4975167;28;20030;-84
2024/01/07 02:16:11;;;;;;;29.43;15.47;;;;;;;0.32;100.00;101742.31;4973905;28;19922;-84
2024/01/07 02:18:46;;;;;;;28.27;14.98;;;;;;;0.39;100.00;101750.31;4974179;28;20038;-84
2024/01/07 02:21:17;;;;;;;32.00;16.80;;;;;;;0.36;100.00;101750.16;4974500;28;20042;-84
2024/01/07 02:23:42;;;;;;;28.17;14.75;;;;;;;0.36;100.00;101742.50;4973000;28;20034;-83
2024/01/07 02:26:10;;;;;;;27.65;14.50;;;;;;;0.43;100.00;101748.75;4973786;28;20177;-84
2024/01/07 02:28:36;;;;;;;27.80;14.50;;;;;;;0.42;100.00;101744.44;4974364;28;20030;-84
2024/01/07 02:31:04;;;;;;;28.17;14.90;;;;;;;0.42;100.00;101759.75;4973896;28;20022;-84
2024/01/07 02:33:30;;;;;;;28.83;14.60;;;;;;;0.38;100.00;101747.69;4969734;28;20094;-84
2024/01/07 02:35:56;;;;;;;26.83;13.18;;;;;;;0.46;100.00;101754.84;4954518;28;20031;-84
2024/01/07 02:38:21;;;;;;;26.30;12.73;;;;;;;0.50;100.00;101757.53;4954278;28;20488;-84
2024/01/07 02:40:46;;;;;;;26.42;12.93;;;;;;;0.47;100.00;101753.19;4955181;28;20035;-84
2024/01/07 02:43:12;;;;;;;29.15;15.10;;;;;;;0.45;100.00;101767.56;4954966;28;20072;-84
2024/01/07 02:45:37;;;;;;;37.20;19.92;;;;;;;0.30;100.00;101758.44;4954170;28;20110;-84
2024/01/07 02:48:03;;;;;;;34.08;17.55;;;;;;;0.35;100.00;101770.53;4954379;28;20027;-84
2024/01/07 02:50:28;;;;;;;33.38;18.20;;;;;;;0.27;100.00;101762.56;4968154;28;20030;-84
2024/01/07 02:52:56;;;;;;;31.60;16.75;;;;;;;0.35;100.00;101766.28;4972958;28;20113;-84
2024/01/07 02:55:21;;;;;;;34.65;19.00;;;;;;;0.33;100.00;101772.16;4966492;28;20028;-84
2024/01/07 02:57:47;;;;;;;37.25;20.10;;;;;;;0.30;100.00;101773.75;4954433;28;20023;-84
2024/01/07 03:00:12;;;;;;;36.83;19.23;;;;;;;0.26;100.00;101771.91;4972775;28;20031;-84
2024/01/07 03:02:38;;;;;;;39.50;21.17;;;;;;;0.23;100.00;101776.88;4973796;28;20110;-84
2024/01/07 03:05:07;;;;;;;40.85;21.80;;;;;;;0.20;100.00;101771.63;4973204;28;20058;-83
2024/01/07 03:07:32;;;;;;;42.83;22.60;;;;;;;0.09;100.00;101765.19;4974029;28;20511;-84
2024/01/07 03:09:57;;;;;;;41.72;23.13;;;;;;;0.19;100.00;101784.34;4974202;28;20027;-83
2024/01/07 03:12:22;;;;;;;38.97;20.92;;;;;;;0.15;100.00;101784.22;4973848;28;20030;-83
2024/01/07 03:14:48;;;;;;;40.55;21.80;;;;;;;0.09;100.00;101776.31;4958028;28;20031;-84
2024/01/07 03:17:14;;;;;;;38.17;19.98;;;;;;;0.18;100.00;101785.16;4954641;28;20054;-84
2024/01/07 03:19:40;;;;;;;47.58;24.70;;;;;;;0.03;100.00;101793.88;4953913;28;20384;-84
2024/01/07 03:22:07;;;;;;;47.60;24.55;;;;;;;0.07;100.00;101785.56;4954726;29;20130;-83
2024/01/07 03:24:33;;;;;;;40.88;21.38;;;;;;;0.12;100.00;101786.63;4954647;28;20043;-83
2024/01/07 03:26:58;;;;;;;46.67;24.75;;;;;;;0.11;100.00;101794.22;4954061;28;20115;-83
2024/01/07 03:29:23;;;;;;;41.50;21.80;;;;;;;0.16;100.00;101792.75;4954392;28;20027;-84
2024/01/07 03:31:49;;;;;;;39.90;20.90;;;;;;;0.13;100.00;101784.97;4954147;28;20139;-84
2024/01/07 03:34:14;;;;;;;41.15;22.25;;;;;;;0.17;100.00;101791.06;4963367;28;20085;-84
2024/01/07 03:36:40;;;;;;;43.63;23.67;;;;;;;0.11;100.00;101797.63;4973378;28;20046;-83
2024/01/07 03:39:05;;;;;;;39.35;21.30;;;;;;;0.21;100.00;101798.91;4973536;28;20019;-84
2024/01/07 03:41:30;;;;;;;37.70;20.00;;;;;;;0.25;100.00;101799.91;4973140;28;20031;-83
2024/01/07 03:43:56;;;;;;;34.63;18.35;;;;;;;0.29;100.00;101809.47;4973650;28;20047;-84
2024/01/07 03:46:22;;;;;;;39.30;21.48;;;;;;;0.26;100.00;101816.97;4974899;28;20495;-83
2024/01/07 03:48:47;;;;;;;38.75;21.33;;;;;;;0.16;100.00;101795.31;4976266;28;20026;-84
2024/01/07 03:51:12;;;;;;;36.25;19.75;;;;;;;0.23;100.00;101814.28;4977355;28;20038;-84
2024/01/07 03:53:41;;;;;;;37.45;20.80;;;;;;;0.22;100.00;101812.56;4977042;28;20432;-84
2024/01/07 03:56:06;;;;;;;35.03;18.70;;;;;;;0.24;100.00;101808.38;4976280;28;20035;-84
2024/01/07 03:58:31;;;;;;;35.55;19.95;;;;;;;0.25;100.00;101810.13;4976789;28;20042;-83
2024/01/07 04:00:57;;;;;;;33.33;19.13;;;;;;;0.25;100.00;101818.69;4977140;28;20038;-84
2024/01/07 04:03:28;;;;;;;33.13;18.45;;;;;;;0.12;100.00;101794.28;4980752;23;20062;-84
2024/01/07 04:05:53;;;;;;;33.28;17.88;;;;;;;0.25;100.00;101815.22;4957316;28;20389;-83
2024/01/07 04:08:22;;;;;;;32.20;17.70;;;;;;;0.19;100.00;101804.78;4957886;28;20031;-84
2024/01/07 04:11:07;;;;;;;33.88;17.92;;;;;;;0.33;100.00;101830.88;4957536;28;20054;-84
2024/01/07 04:13:36;;;;;;;30.60;16.57;;;;;;;0.33;100.00;101818.13;4958923;28;20046;-84
2024/01/07 04:16:33;;;;;;;34.03;17.80;;;;;;;0.18;100.00;101808.13;4958770;28;20159;-84
2024/01/07 04:19:19;;;;;;;36.65;19.85;;;;;;;0.23;100.00;101838.16;4959623;28;20028;-84
2024/01/07 04:21:50;;;;;;;36.47;19.85;;;;;;;0.17;100.00;101829.34;4957192;28;20102;-83
2024/01/07 04:24:15;;;;;;;34.33;18.30;;;;;;;0.22;100.00;101833.00;4956453;28;20535;-84
2024/01/07 04:26:40;;;;;;;33.78;18.25;;;;;;;0.27;100.00;101841.72;4956860;28;20042;-83
2024/01/07 04:29:06;;;;;;;34.25;19.35;;;;;;;0.24;100.00;101846.69;4967348;28;20026;-84
2024/01/07 04:31:31;;;;;;;35.03;19.20;;;;;;;0.12;100.00;101854.69;4975400;28;20026;-83
2024/01/07 04:33:56;;;;;;;35.58;19.27;;;;;;;0.12;100.00;101854.69;4975559;28;20391;-84
2024/01/07 04:36:25;;;;;;;34.92;19.33;;;;;;;0.11;100.00;101863.16;4976366;28;20061;-84
2024/01/07 04:38:52;;;;;;;31.20;16.85;;;;;;;0.12;100.00;101853.00;4975232;28;20460;-83
2024/01/07 04:41:18;;;;;;;30.40;15.80;;;;;;;0.11;100.00;101848.69;4976180;28;20035;-83
2024/01/07 04:43:43;;;;;;;31.35;15.85;;;;;;;0.23;100.00;101868.81;4975430;28;20074;-83
2024/01/07 04:46:10;;;;;;;30.33;15.95;;;;;;;0.26;100.00;101870.59;4976242;28;20053;-84
2024/01/07 04:48:35;;;;;;;;;;;;;;;0.29;100.00;101868.19;4976717;28;20097;-83
2024/01/07 04:51:01;;;;;;;30.70;15.93;;;;;;;0.29;100.00;101875.84;4975203;28;20363;-84
2024/01/07 04:53:28;;;;;;;31.98;17.65;;;;;;;0.22;100.00;101871.31;4976071;28;20534;-83
2024/01/07 04:55:56;;;;;;;33.50;17.92;;;;;;;0.21;100.00;101875.50;4975888;28;20077;-84
2024/01/07 04:58:22;;;;;;;32.72;17.90;;;;;;;0.16;100.00;101879.56;4975071;28;20026;-84
2024/01/07 05:00:47;;;;;;;31.38;17.27;;;;;;;0.21;100.00;101879.75;4975508;28;20023;-83
2024/01/07 05:03:21;;;;;;;29.65;16.10;;;;;;;0.19;100.00;101879.66;4975036;28;20511;-83
2024/01/07 05:05:46;;;;;;;28.80;14.98;;;;;;;0.24;100.00;101879.88;4975206;28;20073;-83
2024/01/07 05:08:14;;;;;;;28.50;15.20;;;;;;;0.22;100.00;101881.50;4975364;28;20023;-84
2024/01/07 05:10:40;;;;;;;27.45;14.70;;;;;;;0.07;100.00;101892.78;4975837;28;20101;-83
2024/01/07 05:13:06;;;;;;;25.33;13.48;;;;;;;0.13;100.00;101887.06;5031996;23;20185;-84
2024/01/07 05:15:32;;;;;;;27.42;15.50;;;;;;;0.12;100.00;101890.44;4975728;28;20034;-83
2024/01/07 05:17:58;;;;;;;26.13;14.98;;;;;;;0.11;100.00;101893.78;4975236;28;20039;-83
2024/01/07 05:20:23;;;;;;;24.75;13.65;;;;;;;0.11;100.00;101891.22;4974704;28;20039;-84
2024/01/07 05:22:48;;;;;;;27.90;14.77;;;;;;;0.07;100.00;101900.44;5031868;23;20054;-83
2024/01/07 05:25:14;;;;;;;26.90;14.70;;;;;;;0.10;100.00;101894.59;4976085;28;20038;-84
2024/01/07 05:27:39;;;;;;;26.13;13.48;;;;;;;0.12;100.00;101910.84;4974365;28;20034;-83
2024/01/07 05:30:11;;;;;;;24.48;13.27;;;;;;;0.11;100.00;101915.06;4975801;28;20026;-83
2024/01/07 05:32:36;;;;;;;25.58;13.98;;;;;;;0.09;100.00;101915.81;4975347;28;20027;-83
2024/01/07 05:35:01;;;;;;;22.80;12.80;;;;;;;0.07;100.00;101918.31;4973009;28;20154;-83
2024/01/07 05:37:27;;;;;;;24.17;13.30;;;;;;;0.05;100.00;101924.16;4974980;28;20030;-83
2024/01/07 05:39:52;;;;;;;23.65;12.95;;;;;;;0.03;100.00;101921.50;4970569;28;20067;-83
2024/01/07 05:42:17;;;;;;;23.13;12.80;;;;;;;0.06;100.00;101931.88;4956162;28;20023;-84
2024/01/07 05:44:42;;;;;;;22.02;12.50;;;;;;;0.06;100.00;101936.97;4974289;28;20042;-83
2024/01/07 05:47:08;;;;;;;23.02;12.43;;;;;;;0.06;100.00;101931.88;4974386;28;20033;-83
2024/01/07 05:49:33;;;;;;;22.73;12.20;;;;;;;0.07;100.00;101935.28;4974499;28;20109;-83
2024/01/07 05:51:58;;;;;;;23.90;13.27;;;;;;;-0.02;100.00;101933.22;4974723;28;20046;-83
2024/01/07 05:54:23;;;;;;;23.60;12.98;;;;;;;0.01;100.00;101938.44;4974103;28;20062;-83
2024/01/07 05:56:49;;;;;;;23.70;13.18;;;;;;;0.07;100.00;101942.94;4974620;28;20027;-83
2024/01/07 05:59:14;;;;;;;24.23;13.52;;;;;;;0.03;100.00;101943.63;4974862;28;20023;-83
2024/01/07 06:01:42;;;;;;;22.73;12.95;;;;;;;0.02;100.00;101950.41;4973619;28;20026;-84
2024/01/07 06:04:07;;;;;;;22.83;12.45;;;;;;;0.03;100.00;101957.25;4967631;28;20038;-84
2024/01/07 06:06:38;;;;;;;22.98;13.02;;;;;;;-0.02;100.00;101954.50;4955371;28;20023;-83
2024/01/07 06:09:04;;;;;;;22.65;12.20;;;;;;;0.01;100.00;101963.97;4954459;28;20042;-84
2024/01/07 06:11:31;;;;;;;22.33;12.63;;;;;;;0.03;100.00;101961.50;4955897;28;20023;-83
2024/01/07 06:13:57;;;;;;;23.60;12.82;;;;;;;-0.06;100.00;101954.28;4963628;28;20077;-83
2024/01/07 06:16:25;;;;;;;22.85;12.68;;;;;;;-0.07;100.00;101968.72;4973923;28;20489;-83
2024/01/07 06:18:50;;;;;;;22.52;12.60;;;;;;;-0.19;100.00;101965.59;4973735;28;20031;-83
2024/01/07 06:21:15;;;;;;;24.10;13.10;;;;;;;-0.18;100.00;101973.31;4974276;28;20022;-83
2024/01/07 06:23:44;;;;;;;22.98;13.55;;;;;;;-0.19;100.00;101970.72;4973213;28;20054;-82
2024/01/07 06:26:10;;;;;;;22.30;13.00;;;;;;;-0.16;100.00;101966.63;4974461;28;20107;-83
2024/01/07 06:28:38;;;;;;;21.90;11.60;;;;;;;-0.08;100.00;101984.84;4973872;28;20465;-82
2024/01/07 06:31:04;;;;;;;21.17;10.98;;;;;;;-0.03;100.00;101985.91;4973705;28;20027;-82
2024/01/07 06:33:29;;;;;;;25.10;14.90;;;;;;;-0.05;100.00;101984.97;4973796;28;20375;-83
2024/01/07 06:35:54;;;;;;;24.90;14.48;;;;;;;-0.04;100.00;101988.41;4973762;28;20722;-83
2024/01/07 06:38:20;;;;;;;23.75;13.35;;;;;;;-0.03;100.00;101992.72;4973561;28;20069;-83
2024/01/07 06:40:45;;;;;;;21.95;12.63;;;;;;;-0.02;100.00;102005.53;4974368;28;20031;-83
2024/01/07 06:43:11;;;;;;;23.90;13.55;;;;;;;-0.01;100.00;101988.56;4973656;28;20494;-83
2024/01/07 06:45:45;;;;;;;24.27;13.95;;;;;;;0.05;100.00;102008.38;4974244;28;20114;-82
2024/01/07 06:48:13;;;;;;;25.33;14.07;;;;;;;0.04;100.00;102016.84;4975304;28;20070;-83
2024/01/07 06:50:38;;;;;;;26.48;15.55;;;;;;;-0.02;100.00;102017.44;4974571;28;20023;-83
2024/01/07 06:53:37;;;;;;;28.58;16.77;;;;;;;-0.11;100.00;102006.78;4970392;28;20033;-83
2024/01/07 06:56:07;;;;;;;25.42;15.50;;;;;;;-0.10;100.00;102011.06;4974713;28;20031;-83
2024/01/07 06:58:41;;;;;;;29.75;18.50;;;;;;;-0.22;100.00;102013.94;4973175;28;20034;-83
2024/01/07 07:01:30;;;;;;;28.58;17.00;;;;;;;-0.20;100.00;102014.88;4973928;28;20403;-83
2024/01/07 07:04:08;;;;;;;29.67;17.52;;;;;;;-0.24;100.00;102010.41;4973747;28;20038;-83
2024/01/07 07:06:34;;;;;;;29.20;17.95;;;;;;;-0.27;100.00;102003.50;4972843;28;20493;-83
2024/01/07 07:09:16;;;;;;;29.07;17.67;;;;;;;-0.27;100.00;102016.25;4973875;28;20051;-83
2024/01/07 07:11:43;;;;;;;28.20;16.63;;;;;;;-0.22;100.00;102021.59;4972822;28;20019;-83
2024/01/07 07:14:21;;;;;;;27.05;16.65;;;;;;;-0.23;100.00;102014.72;4973997;28;20077;-83
2024/01/07 07:17:37;;;;;;;26.92;16.33;;;;;;;-0.12;100.00;102046.75;4974031;28;20027;-83
2024/01/07 07:20:22;;;;;;;28.83;16.83;;;;;;;-0.13;100.00;102056.88;4973275;28;20074;-83
2024/01/07 07:22:47;;;;;;;27.03;16.37;;;;;;;-0.12;100.00;102059.50;5034143;23;20101;-83
2024/01/07 07:25:13;;;;;;;28.85;17.63;;;;;;;-0.18;100.00;102049.88;4976961;28;20039;-83
2024/01/07 07:27:38;;;;;;;29.00;17.48;;;;;;;-0.21;100.00;102059.91;5033361;23;20074;-83
2024/01/07 07:30:05;;;;;;;27.60;16.63;;;;;;;-0.24;100.00;102066.56;4985159;23;20057;-83
2024/01/07 07:32:30;;;;;;;27.83;16.60;;;;;;;-0.34;100.00;102070.34;4976906;28;20019;-84
2024/01/07 07:34:56;;;;;;;25.27;15.13;;;;;;;-0.41;100.00;102079.38;4977379;28;20034;-83
2024/01/07 07:37:21;;;;;;;24.80;14.35;;;;;;;-0.47;100.00;102091.81;4977245;28;20449;-83
2024/01/07 07:39:46;;;;;;;25.13;14.38;;;;;;;-0.47;100.00;102089.25;4976275;28;20023;-83
2024/01/07 07:42:14;;;;;;;24.58;13.75;;;;;;;-0.47;100.00;102109.66;5033725;23;20061;-84
2024/01/07 07:44:39;;;;;;;24.25;12.75;;;;;;;-0.49;100.00;102095.94;4977030;28;20051;-83
2024/01/07 07:47:05;;;;;;;24.23;13.32;;;;;;;-0.58;100.00;102111.69;5136044;23;20001;-83
2024/01/07 07:49:30;;;;;;;24.17;13.63;;;;;;;-0.60;100.00;102107.28;4972993;28;20039;-83
2024/01/07 07:51:56;;;;;;;24.70;14.27;;;;;;;-0.67;100.00;102119.72;4975709;28;20027;-83
2024/01/07 07:54:25;;;;;;;23.80;13.18;;;;;;;-0.60;100.00;102123.47;5024418;23;1085282;-83
2024/01/07 07:56:53;;;;;;;24.55;13.10;;;;;;;-0.57;100.00;102125.28;5015400;28;20037;-89
2024/01/07 07:59:19;;;;;;;24.70;13.55;;;;;;;-0.56;100.00;102125.34;5015892;28;20042;-82
2024/01/07 08:01:45;;;;;;;24.52;12.85;;;;;;;-0.58;100.00;102129.53;5014778;28;20072;-81
2024/01/07 08:04:10;;;;;;;22.38;12.30;;;;;;;-0.60;100.00;102135.31;5015796;28;20461;-85
2024/01/07 08:06:36;;;;;;;24.15;12.95;;;;;;;-0.57;100.00;102132.94;5015657;28;20026;-85
2024/01/07 08:09:01;;;;;;;23.13;12.43;;;;;;;-0.52;100.00;102134.94;5014882;28;20030;-86
2024/01/07 08:11:26;;;;;;;23.38;12.88;;;;;;;-0.53;100.00;102138.28;5014834;28;20144;-83
2024/01/07 08:13:52;;;;;;;24.15;12.57;;;;;;;-0.48;100.00;102138.50;5015722;28;20091;-82
2024/01/07 08:16:18;;;;;;;23.42;12.07;;;;;;;-0.44;100.00;102142.09;5014803;28;20026;-85
2024/01/07 08:18:43;;;;;;;23.27;12.93;;;;;;;-0.44;100.00;102142.97;5015612;28;20112;-83
2024/01/07 08:21:09;;;;;;;26.40;13.55;;;;;;;-0.48;100.00;102143.59;5015404;28;20118;-84
2024/01/07 08:23:34;;;;;;;24.08;13.57;;;;;;;-0.53;100.00;102158.69;5014608;28;20184;-84
2024/01/07 08:25:59;;;;;;;24.73;14.13;;;;;;;-0.68;100.00;102148.56;5015561;28;20033;-85
2024/01/07 08:28:27;;;;;;;24.67;13.32;;;;;;;-0.57;100.00;102156.78;5015640;28;20037;-84
2024/01/07 08:30:53;;;;;;;24.17;13.02;;;;;;;-0.61;100.00;102172.72;5014392;28;20018;-84
2024/01/07 08:33:19;;;;;;;25.33;13.93;;;;;;;-0.70;100.00;102162.03;5014906;28;20663;-83
2024/01/07 08:35:44;;;;;;;24.02;13.10;;;;;;;-0.69;100.00;102174.84;5014432;28;20022;-83
2024/01/07 08:38:09;;;;;;;24.27;13.07;;;;;;;-0.69;100.00;102162.09;5007800;28;20478;-83
2024/01/07 08:40:34;;;;;;;24.08;13.50;;;;;;;-0.68;100.00;102180.84;4995564;28;20034;-84
2024/01/07 08:45:50;;;;;;;23.40;13.27;;;;;;;-0.73;100.00;102178.03;5013826;28;20062;-84
2024/01/07 08:48:34;;;;;;;22.63;12.50;;;;;;;-0.80;100.00;102169.22;5015612;28;20032;-84
2024/01/07 08:51:21;;;;;;;23.70;13.13;;;;;;;-0.72;100.00;102191.66;5014277;28;20474;-84
2024/01/07 08:57:33;;;;;;;22.88;13.13;;;;;;;-0.75;100.00;102196.59;5014006;28;20425;-85
2024/01/07 08:59:58;;;;;;;22.00;12.38;;;;;;;-0.74;100.00;102199.25;5014814;28;20076;-84
2024/01/07 09:05:17;;;;;;;22.35;12.63;;;;;;;-0.62;100.00;102211.75;5337641;23;20066;-84
2024/01/07 09:07:52;;;;;;;21.55;12.07;;;;;;;-0.77;100.00;102191.44;4994655;28;20403;-84
2024/01/07 09:10:29;;;;;;;21.33;11.90;;;;;;;-0.84;100.00;102199.53;4995127;28;20023;-85
2024/01/07 09:16:40;;;;;;;21.45;11.75;;;;;;;-0.88;100.00;102206.16;4994976;28;20040;-84
2024/01/07 09:19:39;;;;;;;20.55;12.15;;;;;;;-0.76;100.00;102228.00;4973864;28;20434;-84
2024/01/07 09:22:19;;;;;;;20.33;11.30;;;;;;;-0.93;100.00;102203.34;4973434;28;20018;-84
2024/01/07 09:24:54;;;;;;;20.77;11.45;;;;;;;-0.81;100.00;102232.84;4975996;28;20049;-84
2024/01/07 09:27:34;;;;;;;21.65;11.82;;;;;;;-0.80;100.00;102245.69;4983629;28;20034;-84
2024/01/07 09:30:27;;;;;;;21.70;12.05;;;;;;;-0.82;100.00;102242.19;4976775;28;20050;-84
2024/01/07 09:33:31;;;;;;;22.00;12.63;;;;;;;-0.78;100.00;102250.84;4974819;28;20031;-83
2024/01/07 09:39:12;;;;;;;21.75;12.07;;;;;;;-0.75;100.00;102263.78;5012538;23;20423;-85
2024/01/07 09:41:40;;;;;;;21.50;12.38;;;;;;;-0.76;100.00;102261.13;4994345;28;20057;-83
2024/01/07 09:47:14;;;;;;;19.23;10.98;;;;;;;-0.95;100.00;102253.34;4993684;28;20034;-84
2024/01/07 09:49:43;;;;;;;21.27;11.13;;;;;;;-1.03;100.00;102241.88;4998285;28;20018;-84
2024/01/07 09:52:21;;;;;;;20.35;11.02;;;;;;;-1.06;100.00;102269.72;4995720;28;20065;-84
2024/01/07 09:54:52;;;;;;;19.02;10.68;;;;;;;-1.07;100.00;102273.09;4999767;28;20022;-83
2024/01/07 09:57:30;;;;;;;20.42;11.38;;;;;;;-1.07;100.00;102279.84;4994192;28;20449;-85
2024/01/07 10:00:17;;;;;;;20.33;12.10;;;;;;;-0.99;100.00;102298.97;5000884;28;20437;-83
2024/01/07 10:02:43;;;;;;;19.67;11.18;;;;;;;-1.02;100.00;102296.28;5005919;28;20052;-83
2024/01/07 10:05:08;;;;;;;20.30;11.43;;;;;;;-0.99;100.00;102301.53;5014113;28;20097;-84
2024/01/07 10:08:05;;;;;;;20.83;11.95;;;;;;;-1.03;100.00;102305.59;5012361;28;20489;-83
2024/01/07 10:13:55;;;;;;;20.77;11.60;;;;;;;-0.97;100.00;102307.59;4936682;29;20071;-83
2024/01/07 10:16:23;;;;;;;20.75;11.20;;;;;;;-1.03;100.00;102287.75;4938705;29;20086;-84
2024/01/07 10:24:48;;;;;;;21.42;12.10;;;;;;;-1.14;100.00;102299.00;4999749;23;20081;-84
2024/01/07 10:29:50;;;;;;;21.67;12.02;;;;;;;-0.98;100.00;102316.03;4978812;23;20054;-83
2024/01/07 10:35:40;;;;;;;20.23;11.63;;;;;;;-0.86;100.00;102320.94;5195495;23;20057;-83
2024/01/07 10:41:38;;;;;;;20.52;11.60;;;;;;;-0.88;100.00;102312.34;4999428;23;20081;-84
2024/01/07 10:45:04;;;;;;;20.88;11.55;;;;;;;-1.10;100.00;102286.53;4992772;28;20034;-84
2024/01/07 10:54:21;;;;;;;20.30;11.38;;;;;;;-0.87;100.00;102314.09;4997581;23;20065;-84
2024/01/07 10:57:47;;;;;;;21.05;11.73;;;;;;;-1.09;100.00;102298.47;5003424;28;20034;-83
2024/01/07 11:00:50;;;;;;;19.52;11.25;;;;;;;-0.87;100.00;102320.06;4943622;29;20055;-83
2024/01/07 11:18:06;;;;;;;21.42;11.82;;;;;;;-0.87;100.00;102327.69;5115318;23;20278;-82
2024/01/07 11:21:22;;;;;;;21.13;12.18;;;;;;;-0.81;100.00;102352.66;4992879;28;20038;-83
2024/01/07 11:27:09;;;;;;;20.70;11.77;;;;;;;-0.87;99.36;102324.28;5032996;23;20058;-83
2024/01/07 11:55:28;;;;;;;21.40;11.40;;;;;;;-0.65;96.08;102344.19;4969346;28;20105;-85
2024/01/07 12:01:26;;;;;;;21.95;11.90;;;;;;;-0.65;97.08;102329.78;4991531;28;20487;-84
2024/01/07 12:07:40;;;;;;;20.35;10.82;;;;;;;-0.69;95.34;102344.81;4930283;29;20038;-84
2024/01/07 12:13:41;;;;;;;18.17;9.82;;;;;;;-0.62;94.39;102347.78;4895399;29;20187;-84
2024/01/07 12:16:21;;;;;;;19.45;9.90;;;;;;;-0.60;94.47;102346.97;4903853;29;20469;-83
2024/01/07 12:19:11;;;;;;;18.60;9.48;;;;;;;-0.51;95.08;102333.06;4893566;29;20052;-83
2024/01/07 12:25:08;;;;;;;18.17;8.80;;;;;;;-0.70;92.04;102343.94;4885075;29;20056;-85
2024/01/07 12:28:20;;;;;;;15.57;8.82;;;;;;;-0.69;91.73;102360.13;4885610;29;20040;-83
2024/01/07 12:31:09;;;;;;;15.10;8.27;;;;;;;-0.79;93.49;102326.44;4862241;29;20101;-84
2024/01/07 12:36:43;;;;;;;17.73;9.38;;;;;;;-0.48;92.32;102360.41;5010979;23;20069;-85
2024/01/07 12:39:08;;;;;;;18.63;9.40;;;;;;;-0.53;90.48;102355.06;4996001;28;20026;-85
2024/01/07 12:41:37;;;;;;;17.48;9.30;;;;;;;-0.60;90.20;102358.09;4995410;28;20607;-84
2024/01/07 12:44:08;;;;;;;17.50;9.18;;;;;;;-0.70;90.59;102358.38;4994990;28;20049;-84
2024/01/07 12:46:34;;;;;;;16.65;9.60;;;;;;;-0.69;91.09;102370.31;4995040;28;20033;-84
2024/01/07 12:48:59;;;;;;;17.80;9.27;;;;;;;-0.87;89.00;102376.13;4995005;28;20109;-85
2024/01/07 12:51:25;;;;;;;17.42;9.00;;;;;;;-0.80;89.28;102379.91;4994257;28;20558;-84
2024/01/07 12:53:50;;;;;;;18.13;8.80;;;;;;;-0.88;88.57;102366.72;4976067;28;20034;-85
2024/01/07 12:56:21;;;;;;;16.05;7.93;;;;;;;-0.91;88.04;102374.22;4994279;28;20478;-84
2024/01/07 12:58:49;;;;;;;13.70;7.63;;;;;;;-0.90;88.38;102383.59;4975646;28;20038;-84
2024/01/07 13:01:15;;;;;;;16.05;8.00;;;;;;;-0.85;89.42;102384.75;4975431;28;20019;-84
2024/01/07 13:03:46;;;;;;;14.18;7.47;;;;;;;-0.98;87.00;102367.00;5081211;23;20058;-84